createdAt,value
2023-02-03T00:01:12.982Z,90.59
2023-02-03T00:03:42.516Z,91.00
2023-02-03T00:06:11.885Z,91.09
2023-02-03T00:08:43.400Z,90.75
2023-02-03T00:11:12.608Z,91.01
2023-02-03T00:13:41.944Z,91.58
2023-02-03T00:16:22.024Z,91.62
2023-02-03T00:18:51.337Z,91.88
2023-02-03T00:21:20.473Z,91.72
2023-02-03T00:23:51.993Z,91.50
2023-02-03T00:26:21.191Z,91.32
2023-02-03T00:28:55.805Z,91.52
2023-02-03T00:31:26.669Z,91.50
2023-02-03T00:36:35.531Z,91.00
2023-02-03T00:39:12.021Z,91.11
2023-02-03T00:41:41.249Z,91.37
2023-02-03T00:44:10.456Z,91.10
2023-02-03T00:46:49.980Z,91.68
2023-02-03T00:49:30.159Z,91.80
2023-02-03T00:51:59.464Z,92.00
2023-02-03T00:54:32.634Z,92.19
2023-02-03T00:57:08.226Z,91.73
2023-02-03T00:59:37.550Z,91.98
2023-02-03T01:02:13.418Z,91.90
2023-02-03T01:04:53.648Z,91.75
2023-02-03T01:07:22.959Z,91.73
2023-02-03T01:09:55.286Z,92.31
2023-02-03T01:12:32.983Z,92.32
2023-02-03T01:15:02.356Z,92.39
2023-02-03T01:17:33.476Z,92.96
2023-02-03T01:20:02.752Z,92.88
2023-02-03T01:22:39.844Z,92.80
2023-02-03T01:25:12.850Z,92.60
2023-02-03T01:27:41.768Z,93.70
2023-02-03T01:30:12.476Z,92.63
2023-02-03T01:32:41.684Z,92.19
2023-02-03T01:35:11.079Z,91.98
2023-02-03T01:37:45.270Z,91.95
2023-02-03T01:42:51.326Z,91.50
2023-02-03T01:45:30.950Z,91.41
2023-02-03T01:48:06.201Z,91.42
2023-02-03T01:50:38.327Z,91.53
2023-02-03T01:53:13.628Z,90.95
2023-02-03T01:55:48.689Z,91.29
2023-02-03T01:58:24.304Z,91.05
2023-02-03T02:00:57.069Z,91.21
2023-02-03T02:03:29.737Z,91.02
2023-02-03T02:06:05.668Z,90.86
2023-02-03T02:08:35.257Z,90.70
2023-02-03T02:11:07.287Z,90.65
2023-02-03T02:13:39.556Z,90.60
2023-02-03T02:16:17.013Z,91.29
2023-02-03T02:19:02.265Z,90.93
2023-02-03T02:21:50.897Z,90.67
2023-02-03T02:24:50.480Z,90.43
2023-02-03T02:27:34.144Z,90.30
2023-02-03T02:30:43.509Z,90.76
2023-02-03T02:33:21.083Z,90.26
2023-02-03T02:35:59.432Z,90.33
2023-02-03T02:38:48.764Z,90.39
2023-02-03T02:41:25.031Z,90.18
2023-02-03T02:44:03.403Z,90.20
2023-02-03T02:46:40.542Z,90.38
2023-02-03T02:49:18.433Z,90.29
2023-02-03T02:51:50.459Z,90.08
2023-02-03T02:54:23.687Z,90.42
2023-02-03T02:56:57.523Z,90.31
2023-02-03T02:59:31.927Z,89.81
2023-02-03T03:02:01.770Z,90.08
2023-02-03T03:04:35.833Z,89.70
2023-02-03T03:07:10.247Z,89.90
2023-02-03T03:09:44.927Z,89.78
2023-02-03T03:12:18.877Z,90.22
2023-02-03T03:14:57.098Z,90.40
2023-02-03T03:17:29.804Z,90.13
2023-02-03T03:20:11.375Z,90.66
2023-02-03T03:22:45.951Z,90.70
2023-02-03T03:25:19.192Z,90.74
2023-02-03T03:27:53.892Z,91.41
2023-02-03T03:33:07.520Z,91.09
2023-02-03T03:35:49.383Z,90.87
2023-02-03T03:38:25.333Z,91.00
2023-02-03T03:41:01.108Z,91.01
2023-02-03T03:43:33.906Z,91.05
2023-02-03T03:46:06.833Z,90.86
2023-02-03T03:48:47.340Z,90.90
2023-02-03T03:51:22.375Z,91.11
2023-02-03T03:53:54.004Z,90.98
2023-02-03T03:56:34.533Z,91.01
2023-02-03T03:59:10.806Z,91.06
2023-02-03T04:01:41.179Z,91.38
2023-02-03T04:04:13.216Z,91.02
2023-02-03T04:06:44.069Z,91.52
2023-02-03T04:09:13.335Z,91.04
2023-02-03T04:11:55.444Z,91.10
2023-02-03T04:14:24.898Z,91.45
2023-02-03T04:16:53.971Z,91.49
2023-02-03T04:19:23.196Z,91.59
2023-02-03T04:21:54.700Z,91.93
2023-02-03T04:24:23.916Z,91.77
2023-02-03T04:26:52.998Z,91.41
2023-02-03T04:29:22.300Z,91.01
2023-02-03T04:31:51.536Z,91.85
2023-02-03T04:34:20.763Z,91.62
2023-02-03T04:37:02.372Z,91.72
2023-02-03T04:39:31.522Z,91.98
2023-02-03T04:42:01.093Z,91.50
2023-02-03T04:44:30.521Z,91.67
2023-02-03T04:47:07.673Z,92.03
2023-02-03T04:49:36.851Z,91.79
2023-02-03T04:52:08.537Z,92.14
2023-02-03T04:54:37.829Z,91.95
2023-02-03T04:57:07.422Z,91.62
2023-02-03T04:59:36.631Z,91.56
2023-02-03T05:02:05.912Z,91.75
2023-02-03T05:04:35.058Z,91.42
2023-02-03T05:07:04.503Z,91.51
2023-02-03T05:09:41.014Z,91.55
2023-02-03T05:12:10.264Z,91.72
2023-02-03T05:14:39.410Z,92.07
2023-02-03T05:17:13.682Z,91.75
2023-02-03T05:19:43.137Z,92.23
2023-02-03T05:22:22.527Z,92.53
2023-02-03T05:24:53.716Z,92.62
2023-02-03T05:27:23.121Z,92.67
2023-02-03T05:29:52.408Z,93.03
2023-02-03T05:32:26.672Z,92.87
2023-02-03T05:35:05.928Z,92.72
2023-02-03T05:37:35.597Z,92.61
2023-02-03T05:40:21.052Z,92.66
2023-02-03T05:42:51.035Z,92.36
2023-02-03T05:48:02.132Z,92.52
2023-02-03T05:50:33.605Z,92.77
2023-02-03T05:53:11.718Z,92.85
2023-02-03T05:55:47.948Z,93.10
2023-02-03T05:58:17.498Z,92.49
2023-02-03T06:00:47.032Z,92.54
2023-02-03T06:03:16.465Z,92.92
2023-02-03T06:05:45.679Z,93.20
2023-02-03T06:08:14.821Z,93.24
2023-02-03T06:10:43.953Z,92.66
2023-02-03T06:13:20.208Z,92.61
2023-02-03T06:15:49.512Z,92.87
2023-02-03T06:18:18.654Z,92.86
2023-02-03T06:21:00.204Z,92.37
2023-02-03T06:23:29.414Z,92.19
2023-02-03T06:25:59.969Z,92.06
2023-02-03T06:28:33.113Z,92.50
2023-02-03T06:31:08.771Z,92.24
2023-02-03T06:33:38.071Z,92.04
2023-02-03T06:36:07.977Z,92.25
2023-02-03T06:38:37.151Z,92.25
2023-02-03T06:41:06.643Z,92.41
2023-02-03T06:43:43.390Z,92.36
2023-02-03T06:46:14.003Z,91.86
2023-02-03T06:48:43.202Z,92.14
2023-02-03T06:51:12.295Z,92.26
2023-02-03T06:53:54.976Z,91.50
2023-02-03T06:56:24.122Z,91.84
2023-02-03T06:58:55.152Z,91.99
2023-02-03T07:01:25.502Z,91.64
2023-02-03T07:03:57.491Z,91.21
2023-02-03T07:06:28.764Z,91.50
2023-02-03T07:08:59.519Z,91.13
2023-02-03T07:11:30.488Z,90.97
2023-02-03T07:14:06.954Z,91.52
2023-02-03T07:16:37.125Z,91.47
2023-02-03T07:19:12.863Z,91.22
2023-02-03T07:21:42.218Z,91.57
2023-02-03T07:24:11.609Z,91.71
2023-02-03T07:26:46.636Z,91.62
2023-02-03T07:29:17.712Z,91.47
2023-02-03T07:31:52.234Z,91.08
2023-02-03T07:34:21.396Z,91.10
2023-02-03T07:36:55.965Z,90.88
2023-02-03T07:39:26.091Z,90.81
2023-02-03T07:41:55.506Z,90.82
2023-02-03T07:44:27.656Z,91.02
2023-02-03T07:46:57.262Z,90.46
2023-02-03T07:49:26.463Z,90.57
2023-02-03T07:51:56.099Z,90.23
2023-02-03T07:54:25.210Z,89.97
2023-02-03T07:56:54.560Z,89.43
2023-02-03T07:59:23.587Z,89.21
2023-02-03T08:01:55.845Z,89.14
2023-02-03T08:04:25.270Z,88.39
2023-02-03T08:06:54.807Z,88.50
2023-02-03T08:09:24.009Z,88.51
2023-02-03T08:11:53.534Z,87.89
2023-02-03T08:14:23.521Z,87.70
2023-02-03T08:16:54.526Z,86.94
2023-02-03T08:19:23.679Z,87.24
2023-02-03T08:21:52.804Z,86.87
2023-02-03T08:24:22.861Z,86.78
2023-02-03T08:26:52.554Z,87.36
2023-02-03T08:29:26.865Z,87.17
2023-02-03T08:31:59.738Z,87.48
2023-02-03T08:34:29.291Z,87.59
2023-02-03T08:36:58.454Z,87.55
2023-02-03T08:39:27.827Z,87.57
2023-02-03T08:41:57.023Z,88.07
2023-02-03T08:44:26.405Z,87.94
2023-02-03T08:46:58.002Z,88.36
2023-02-03T08:49:29.255Z,88.33
2023-02-03T08:52:04.097Z,88.33
2023-02-03T08:54:33.318Z,88.29
2023-02-03T08:57:05.134Z,87.75
2023-02-03T08:59:35.714Z,87.33
2023-02-03T09:02:18.200Z,87.18
2023-02-03T09:04:49.947Z,87.75
2023-02-03T09:07:19.296Z,87.42
2023-02-03T09:09:48.533Z,87.74
2023-02-03T09:12:22.755Z,87.82
2023-02-03T09:14:52.438Z,87.85
2023-02-03T09:17:23.665Z,88.01
2023-02-03T09:19:52.945Z,87.65
2023-02-03T09:22:22.051Z,87.55
2023-02-03T09:24:56.950Z,87.05
2023-02-03T09:27:26.090Z,87.23
2023-02-03T09:29:55.283Z,87.27
2023-02-03T09:32:33.531Z,87.41
2023-02-03T09:35:02.715Z,88.23
2023-02-03T09:37:32.729Z,89.62
2023-02-03T09:40:08.500Z,89.74
2023-02-03T09:43:05.602Z,90.96
2023-02-03T09:45:40.127Z,90.68
2023-02-03T09:48:18.542Z,91.19
2023-02-03T09:50:50.486Z,90.36
2023-02-03T09:53:29.679Z,90.25
2023-02-03T09:56:01.509Z,89.71
2023-02-03T09:58:35.781Z,89.52
2023-02-03T10:01:10.507Z,89.09
2023-02-03T10:03:53.937Z,88.98
2023-02-03T10:06:33.529Z,88.60
2023-02-03T10:09:21.362Z,88.96
2023-02-03T10:12:05.752Z,88.30
2023-02-03T10:14:48.319Z,87.85
2023-02-03T10:17:30.000Z,87.46
2023-02-03T10:20:06.626Z,86.75
2023-02-03T10:22:42.491Z,86.63
2023-02-03T10:25:24.392Z,86.27
2023-02-03T10:27:54.313Z,85.31
2023-02-03T10:30:25.694Z,85.54
2023-02-03T10:32:57.702Z,85.73
2023-02-03T10:35:30.209Z,84.90
2023-02-03T10:38:01.125Z,85.35
2023-02-03T10:40:31.266Z,85.35
2023-02-03T10:43:13.959Z,85.33
2023-02-03T10:45:43.259Z,85.58
2023-02-03T10:48:17.665Z,85.62
2023-02-03T10:50:52.055Z,85.33
2023-02-03T10:53:28.460Z,85.01
2023-02-03T10:56:07.135Z,84.53
2023-02-03T10:58:38.348Z,84.60
2023-02-03T11:01:19.716Z,83.92
2023-02-03T11:03:59.821Z,83.57
2023-02-03T11:06:32.462Z,83.90
2023-02-03T11:09:26.038Z,83.01
2023-02-03T11:12:14.124Z,82.53
2023-02-03T11:14:44.940Z,83.25
2023-02-03T11:17:19.231Z,83.00
2023-02-03T11:19:50.399Z,83.01
2023-02-03T11:22:32.607Z,82.06
2023-02-03T11:25:01.922Z,82.40
2023-02-03T11:27:34.996Z,82.03
2023-02-03T11:30:17.089Z,80.73
2023-02-03T11:32:47.655Z,80.01
2023-02-03T11:35:24.631Z,81.11
2023-02-03T11:37:57.060Z,80.53
2023-02-03T11:40:28.313Z,80.62
2023-02-03T11:43:06.947Z,80.34
2023-02-03T11:45:42.205Z,80.56
2023-02-03T11:48:30.270Z,79.75
2023-02-03T11:51:11.747Z,81.05
2023-02-03T11:53:59.846Z,80.61
2023-02-03T11:56:37.908Z,81.13
2023-02-03T11:59:37.589Z,81.05
2023-02-03T12:02:43.906Z,80.98
2023-02-03T12:05:31.038Z,80.34
2023-02-03T12:08:18.066Z,80.21
2023-02-03T12:11:02.964Z,79.14
2023-02-03T12:14:10.030Z,78.84
2023-02-03T12:17:05.986Z,78.52
2023-02-03T12:19:49.852Z,78.97
2023-02-03T12:22:27.985Z,78.71
2023-02-03T12:25:06.198Z,78.39
2023-02-03T12:27:48.630Z,78.54
2023-02-03T12:30:21.992Z,78.54
2023-02-03T12:32:55.808Z,78.68
2023-02-03T12:35:32.085Z,78.49
2023-02-03T12:38:07.305Z,77.70
2023-02-03T12:40:41.999Z,77.96
2023-02-03T12:43:29.548Z,77.46
2023-02-03T12:46:03.178Z,78.19
2023-02-03T12:53:54.177Z,77.41
2023-02-03T12:56:29.625Z,78.62
2023-02-03T12:59:09.856Z,78.83
2023-02-03T13:01:46.918Z,79.79
2023-02-03T13:04:32.040Z,79.86
2023-02-03T13:07:10.311Z,80.30
2023-02-03T13:09:54.959Z,80.46
2023-02-03T13:12:31.583Z,80.56
2023-02-03T13:15:14.103Z,80.43
2023-02-03T13:17:50.365Z,80.93
2023-02-03T13:20:24.206Z,80.77
2023-02-03T13:22:53.893Z,80.96
2023-02-03T13:25:29.115Z,81.91
2023-02-03T13:28:20.268Z,82.57
2023-02-03T13:31:15.027Z,82.54
2023-02-03T13:34:04.026Z,83.20
2023-02-03T13:37:01.124Z,83.48
2023-02-03T13:39:53.500Z,83.69
2023-02-03T13:42:28.248Z,83.55
2023-02-03T13:45:01.914Z,83.83
2023-02-03T13:47:34.668Z,84.27
2023-02-03T13:50:07.163Z,84.56
2023-02-03T13:52:42.302Z,85.25
2023-02-03T13:55:31.047Z,85.95
2023-02-03T13:58:03.879Z,85.38
2023-02-03T14:01:03.358Z,86.89
2023-02-03T14:03:48.754Z,86.30
2023-02-03T14:07:02.239Z,86.56
2023-02-03T14:10:23.516Z,87.48
2023-02-03T14:13:03.995Z,87.78
2023-02-03T14:15:39.237Z,86.98
2023-02-03T14:18:36.718Z,88.69
2023-02-03T14:21:14.839Z,88.43
2023-02-03T14:23:49.945Z,88.90
2023-02-03T14:26:36.007Z,89.42
2023-02-03T14:29:10.711Z,90.05
2023-02-03T14:31:57.249Z,90.55
2023-02-03T14:34:39.638Z,90.73
2023-02-03T14:37:16.452Z,91.08
2023-02-03T14:40:15.206Z,92.68
2023-02-03T14:43:22.380Z,92.86
2023-02-03T14:46:18.788Z,92.77
2023-02-03T14:48:59.631Z,92.73
2023-02-03T14:51:47.152Z,93.14
2023-02-03T14:54:31.196Z,92.70
2023-02-03T14:57:19.208Z,93.71
2023-02-03T14:59:52.068Z,92.74
2023-02-03T15:02:31.761Z,93.24
2023-02-03T15:05:36.412Z,94.60
2023-02-03T15:08:06.121Z,93.46
2023-02-03T15:10:44.247Z,94.75
2023-02-03T15:16:19.679Z,94.19
2023-02-03T15:18:57.428Z,95.75
2023-02-03T15:21:27.124Z,95.05
2023-02-03T15:23:56.737Z,94.67
2023-02-03T15:26:28.647Z,94.81
2023-02-03T15:29:01.897Z,95.10
2023-02-03T15:31:35.795Z,95.87
2023-02-03T15:34:12.990Z,95.69
2023-02-03T15:36:47.635Z,95.71
2023-02-03T15:39:24.129Z,95.52
2023-02-03T15:41:56.564Z,95.43
2023-02-03T15:44:32.526Z,96.03
2023-02-03T15:47:05.826Z,96.13
2023-02-03T15:49:42.313Z,96.10
2023-02-03T15:52:17.427Z,96.21
2023-02-03T15:54:58.958Z,96.24
2023-02-03T15:57:38.483Z,96.11
2023-02-03T16:00:25.911Z,96.19
2023-02-03T16:02:57.765Z,96.49
2023-02-03T16:05:32.045Z,96.44
2023-02-03T16:08:31.233Z,96.97
2023-02-03T16:13:35.630Z,95.85
2023-02-03T16:16:09.965Z,96.33
2023-02-03T16:18:58.228Z,96.46
2023-02-03T16:21:35.565Z,96.60
2023-02-03T16:24:45.752Z,97.00
2023-02-03T16:27:33.813Z,96.83
2023-02-03T16:30:36.519Z,96.70
2023-02-03T16:33:31.238Z,96.26
2023-02-03T16:36:26.308Z,96.50
2023-02-03T16:39:10.451Z,96.10
2023-02-03T16:41:52.961Z,95.94
2023-02-03T16:44:35.078Z,95.98
2023-02-03T16:47:18.395Z,95.86
2023-02-03T16:50:00.493Z,96.24
2023-02-03T16:52:29.379Z,96.41
2023-02-03T16:55:00.817Z,95.72
2023-02-03T16:57:30.218Z,96.63
2023-02-03T16:59:59.331Z,95.37
2023-02-03T17:02:28.517Z,95.47
2023-02-03T17:04:58.191Z,95.37
2023-02-03T17:07:27.994Z,95.27
2023-02-03T17:09:57.253Z,95.38
2023-02-03T17:12:30.809Z,95.37
2023-02-03T17:15:00.176Z,95.30
2023-02-03T17:17:29.699Z,95.72
2023-02-03T17:20:05.307Z,95.20
2023-02-03T17:22:34.574Z,95.29
2023-02-03T17:25:03.942Z,95.48
2023-02-03T17:27:35.671Z,95.34
2023-02-03T17:30:05.151Z,95.33
2023-02-03T17:32:34.561Z,95.17
2023-02-03T17:35:03.815Z,94.95
2023-02-03T17:37:35.054Z,95.23
2023-02-03T17:54:04.399Z,94.52
2023-02-03T17:56:36.137Z,94.79
2023-02-03T17:59:07.644Z,94.94
2023-02-03T18:01:38.190Z,94.85
2023-02-03T18:04:08.427Z,94.93
2023-02-03T18:06:37.904Z,94.97
2023-02-03T18:09:09.770Z,95.21
2023-02-03T18:11:39.821Z,94.73
2023-02-03T18:14:13.286Z,94.53
2023-02-03T18:16:44.023Z,94.58
2023-02-03T18:19:16.255Z,94.33
2023-02-03T18:21:47.107Z,94.59
2023-02-03T18:24:21.935Z,93.90
2023-02-03T18:26:53.056Z,94.16
2023-02-03T18:29:24.447Z,94.74
2023-02-03T18:31:53.746Z,94.22
2023-02-03T18:34:23.438Z,94.64
2023-02-03T18:36:57.771Z,94.46
2023-02-03T18:39:27.122Z,94.48
2023-02-03T18:41:56.268Z,94.53
2023-02-03T18:44:27.498Z,94.45
2023-02-03T18:47:04.837Z,94.97
2023-02-03T18:49:36.307Z,94.89
2023-02-03T18:52:06.464Z,95.08
2023-02-03T18:54:35.587Z,95.05
2023-02-03T18:57:05.430Z,95.22
2023-02-03T18:59:36.578Z,95.15
2023-02-03T19:02:05.927Z,95.16
2023-02-03T19:04:35.785Z,95.53
2023-02-03T19:07:05.048Z,95.56
2023-02-03T19:09:34.685Z,95.56
2023-02-03T19:12:04.531Z,95.23
2023-02-03T19:14:42.069Z,95.68
2023-02-03T19:17:11.902Z,95.48
2023-02-03T19:22:16.582Z,95.59
2023-02-03T19:24:45.709Z,96.23
2023-02-03T19:27:14.997Z,96.19
2023-02-03T19:29:45.997Z,95.90
2023-02-03T19:32:15.591Z,95.98
2023-02-03T19:34:49.790Z,96.47
2023-02-03T19:37:19.151Z,96.16
2023-02-03T19:39:51.115Z,95.94
2023-02-03T19:42:20.493Z,95.68
2023-02-03T19:44:52.181Z,95.84
2023-02-03T19:47:21.399Z,95.70
2023-02-03T19:49:50.634Z,95.63
2023-02-03T19:52:20.002Z,95.83
2023-02-03T19:54:51.789Z,96.05
2023-02-03T19:57:22.159Z,95.86
2023-02-03T19:59:58.272Z,95.43
2023-02-03T20:02:27.647Z,95.02
2023-02-03T20:04:57.180Z,95.37
2023-02-03T20:07:28.119Z,94.94
2023-02-03T20:10:02.770Z,94.98
2023-02-03T20:12:32.611Z,94.78
2023-02-03T20:15:04.186Z,94.62
2023-02-03T20:17:33.649Z,94.60
2023-02-03T20:20:03.836Z,94.24
2023-02-03T20:22:33.926Z,93.66
2023-02-03T20:25:03.099Z,93.74
2023-02-03T20:27:32.606Z,93.28
2023-02-03T20:30:03.924Z,93.77
2023-02-03T20:32:34.063Z,93.67
2023-02-03T20:35:03.684Z,93.64
2023-02-03T20:37:35.600Z,93.45
2023-02-03T20:40:05.567Z,93.57
2023-02-03T20:42:35.767Z,93.46
2023-02-03T20:45:12.534Z,93.49
2023-02-03T20:47:47.288Z,93.74
2023-02-03T20:50:21.727Z,93.40
2023-02-03T20:52:58.466Z,93.41
2023-02-03T20:55:35.752Z,93.28
2023-02-03T20:58:06.622Z,92.84
2023-02-03T21:00:39.191Z,92.99
2023-02-03T21:03:29.175Z,93.10
2023-02-03T21:05:58.999Z,93.23
2023-02-03T21:08:33.833Z,92.97
2023-02-03T21:11:03.031Z,93.02
2023-02-03T21:13:37.583Z,92.51
2023-02-03T21:16:18.189Z,92.86
2023-02-03T21:18:50.862Z,92.69
2023-02-03T21:21:24.606Z,92.35
2023-02-03T21:24:00.232Z,92.45
2023-02-03T21:26:32.391Z,91.96
2023-02-03T21:29:03.595Z,92.14
2023-02-03T21:31:36.109Z,91.78
2023-02-03T21:36:55.163Z,91.73
2023-02-03T21:39:30.560Z,91.91
2023-02-03T21:42:04.488Z,91.27
2023-02-03T21:44:42.767Z,91.32
2023-02-03T21:47:19.264Z,90.80
2023-02-03T21:49:53.608Z,90.81
2023-02-03T21:52:22.662Z,90.86
2023-02-03T21:54:51.997Z,90.56
2023-02-03T21:57:22.302Z,90.47
2023-02-03T21:59:51.424Z,90.01
2023-02-03T22:02:49.637Z,88.21
2023-02-03T22:05:18.897Z,88.45
2023-02-03T22:07:47.905Z,88.54
2023-02-03T22:10:17.616Z,88.12
2023-02-03T22:12:46.729Z,88.07
2023-02-03T22:15:16.048Z,88.35
2023-02-03T22:17:49.338Z,88.00
2023-02-03T22:20:18.659Z,87.74
2023-02-03T22:25:29.225Z,87.98
2023-02-03T22:28:03.382Z,87.52
2023-02-03T22:30:33.178Z,87.77
2023-02-03T22:33:04.444Z,86.98
2023-02-03T22:35:33.933Z,86.85
2023-02-03T22:38:03.074Z,86.52
2023-02-03T22:40:32.857Z,86.30
2023-02-03T22:43:02.670Z,86.87
2023-02-03T22:45:32.167Z,86.90
2023-02-03T22:48:01.329Z,87.23
2023-02-03T22:50:35.910Z,87.08
2023-02-03T22:53:06.643Z,87.03
2023-02-03T22:55:35.730Z,87.29
2023-02-03T22:58:05.350Z,87.50
2023-02-03T23:00:39.583Z,86.98
2023-02-03T23:03:09.208Z,86.73
2023-02-03T23:05:40.304Z,86.95
2023-02-03T23:08:09.492Z,86.65
2023-02-03T23:10:38.687Z,86.62
2023-02-03T23:15:53.484Z,86.18
2023-02-03T23:18:22.644Z,86.70
2023-02-03T23:20:53.776Z,86.28
2023-02-03T23:23:23.089Z,86.60
2023-02-03T23:25:52.112Z,86.97
2023-02-03T23:28:21.699Z,86.87
2023-02-03T23:30:52.168Z,86.70
2023-02-03T23:33:21.767Z,86.87
2023-02-03T23:35:50.242Z,86.97
2023-02-03T23:38:21.280Z,87.01
2023-02-03T23:40:50.733Z,86.71
2023-02-03T23:43:20.926Z,86.88
2023-02-03T23:45:50.062Z,86.75
2023-02-03T23:48:19.210Z,86.47
2023-02-03T23:50:48.669Z,86.64
2023-02-03T23:53:17.808Z,86.51
2023-02-03T23:55:55.263Z,86.48
2023-02-03T23:58:24.638Z,86.96
